createdAt,value
2022-10-10T14:18:39.150Z,98820.59
2022-10-10T14:21:13.948Z,98821.72
2022-10-10T14:23:51.370Z,98803.59
2022-10-10T14:26:25.486Z,98825.44
2022-10-10T14:28:59.617Z,98823.84
2022-10-10T14:34:15.451Z,98815.06
2022-10-10T14:36:59.995Z,98819.25
2022-10-10T14:39:34.718Z,98820.91
2022-10-10T14:42:20.528Z,98815.28
2022-10-10T14:44:50.472Z,98806.84
2022-10-10T14:47:40.418Z,98805.63
2022-10-10T14:50:28.314Z,98798.75
2022-10-10T14:53:05.956Z,98788.31
2022-10-10T14:55:46.873Z,98801.81
2022-10-10T14:58:28.006Z,98795.75
2022-10-10T15:01:00.066Z,98800.13
2022-10-10T15:03:29.227Z,98802.50
2022-10-10T15:06:12.601Z,98800.97
2022-10-10T15:08:48.936Z,98782.47
2022-10-10T15:11:18.621Z,98786.75
2022-10-10T15:13:48.242Z,98807.44
2022-10-10T15:16:27.826Z,98800.16
2022-10-10T15:18:58.853Z,98808.50
2022-10-10T15:21:44.616Z,98809.91
2022-10-10T15:24:14.359Z,98799.41
2022-10-10T15:26:45.844Z,98802.84
2022-10-10T15:29:28.118Z,98775.63
2022-10-10T15:32:01.838Z,98796.81
2022-10-10T15:34:32.648Z,98787.66
2022-10-10T15:37:09.405Z,98802.88
2022-10-10T15:39:50.245Z,98793.31
2022-10-10T15:42:26.100Z,98798.56
2022-10-10T15:45:04.564Z,98792.50
2022-10-10T15:47:46.692Z,98796.38
2022-10-10T15:50:26.816Z,98798.88
2022-10-10T15:52:57.869Z,98800.75
2022-10-10T15:55:32.022Z,98800.75
2022-10-10T15:58:10.406Z,98797.47
2022-10-10T16:00:43.668Z,98801.97
2022-10-10T16:03:18.387Z,98815.72
2022-10-10T16:05:51.921Z,98797.47
2022-10-10T16:08:25.353Z,98808.50
2022-10-10T16:10:58.199Z,98814.03
2022-10-10T16:13:28.789Z,98811.66
2022-10-10T16:16:03.115Z,98818.09
2022-10-10T16:18:36.620Z,98806.22
2022-10-10T16:21:12.301Z,98804.97
2022-10-10T16:23:43.734Z,98803.97
2022-10-10T16:26:31.858Z,98815.72
2022-10-10T16:29:08.731Z,98812.50
2022-10-10T16:31:41.545Z,98806.84
2022-10-10T16:34:22.927Z,98811.34
2022-10-10T16:36:53.025Z,98811.63
2022-10-10T16:39:36.900Z,98804.69
2022-10-10T16:42:08.280Z,98804.50
2022-10-10T16:44:50.893Z,98811.75
2022-10-10T16:47:27.416Z,98804.56
2022-10-10T16:50:06.531Z,98790.38
2022-10-10T16:52:41.861Z,98816.44
2022-10-10T16:55:21.006Z,98816.25
2022-10-10T16:57:56.214Z,98815.84
2022-10-10T17:00:26.716Z,98817.25
2022-10-10T17:02:56.402Z,98812.22
2022-10-10T17:05:29.501Z,98824.59
2022-10-10T17:07:58.403Z,98825.44
2022-10-10T17:10:31.378Z,98830.09
2022-10-10T17:13:09.185Z,98835.31
2022-10-10T17:15:46.452Z,98837.44
2022-10-10T17:18:19.630Z,98841.91
2022-10-10T17:20:51.568Z,98845.69
2022-10-10T17:23:22.717Z,98844.00
2022-10-10T17:25:53.940Z,98839.94
2022-10-10T17:28:33.079Z,98845.69
2022-10-10T17:31:06.094Z,98842.38
2022-10-10T17:33:53.333Z,98825.53
2022-10-10T17:36:29.871Z,98850.25
2022-10-10T17:39:00.647Z,98827.44
2022-10-10T17:41:33.474Z,98855.00
2022-10-10T17:44:13.401Z,98855.41
2022-10-10T17:46:47.320Z,98856.06
2022-10-10T17:49:19.385Z,98853.59
2022-10-10T17:51:47.290Z,98855.69
2022-10-10T17:54:18.949Z,98854.63
2022-10-10T17:56:50.181Z,98861.66
2022-10-10T17:59:20.435Z,98861.50
2022-10-10T18:02:02.473Z,98861.44
2022-10-10T18:04:36.852Z,98865.31
2022-10-10T18:07:05.419Z,98855.94
2022-10-10T18:12:16.521Z,98877.69
2022-10-10T18:14:59.333Z,98883.59
2022-10-10T18:17:32.659Z,98877.53
2022-10-10T18:20:20.718Z,98881.75
2022-10-10T18:22:50.499Z,98883.63
2022-10-10T18:25:21.679Z,98883.13
2022-10-10T18:27:55.853Z,98891.06
2022-10-10T18:30:28.146Z,98893.84
2022-10-10T18:33:00.002Z,98887.94
2022-10-10T18:35:43.993Z,98890.06
2022-10-10T18:38:20.688Z,98886.19
2022-10-10T18:40:56.407Z,98892.94
2022-10-10T18:43:35.498Z,98875.16
2022-10-10T18:46:11.376Z,98897.22
2022-10-10T18:48:44.371Z,98901.38
2022-10-10T18:51:22.232Z,98892.28
2022-10-10T18:54:04.355Z,98894.03
2022-10-10T18:56:34.477Z,98901.63
2022-10-10T18:59:23.392Z,98888.97
2022-10-10T19:01:59.756Z,98895.06
2022-10-10T19:04:32.923Z,98905.84
2022-10-10T19:07:16.352Z,98900.66
2022-10-10T19:09:47.045Z,98901.88
2022-10-10T19:12:30.762Z,98907.13
2022-10-10T19:15:01.696Z,98904.75
2022-10-10T19:17:34.115Z,98896.53
2022-10-10T19:20:05.625Z,98899.06
2022-10-10T19:22:43.697Z,98896.75
2022-10-10T19:25:14.600Z,98892.78
2022-10-10T19:27:49.048Z,98891.03
2022-10-10T19:30:17.414Z,98889.41
2022-10-10T19:32:50.806Z,98894.63
2022-10-10T19:35:21.779Z,98894.81
2022-10-10T19:37:52.522Z,98899.31
2022-10-10T19:40:34.084Z,98895.25
2022-10-10T19:43:11.081Z,98871.03
2022-10-10T19:45:50.245Z,98904.19
2022-10-10T19:48:26.528Z,98901.81
2022-10-10T19:50:59.682Z,98896.31
2022-10-10T19:59:15.189Z,98914.50
2022-10-10T20:01:47.920Z,98919.91
2022-10-10T20:04:22.159Z,98928.63
2022-10-10T20:06:49.912Z,98923.13
2022-10-10T20:09:22.501Z,98924.72
2022-10-10T20:12:01.215Z,98925.88
2022-10-10T20:14:31.696Z,98921.19
2022-10-10T20:17:10.905Z,98935.63
2022-10-10T20:19:50.250Z,98930.78
2022-10-10T20:25:12.369Z,98924.53
2022-10-10T20:27:55.640Z,98930.91
2022-10-10T20:30:34.354Z,98924.47
2022-10-10T20:33:02.522Z,98931.00
2022-10-10T20:35:32.672Z,98922.47
2022-10-10T20:38:03.171Z,98916.72
2022-10-10T20:40:39.080Z,98929.06
2022-10-10T20:43:07.799Z,98919.59
2022-10-10T20:45:42.954Z,98944.69
2022-10-10T20:48:15.859Z,98928.69
2022-10-10T20:50:52.228Z,98956.63
2022-10-10T20:53:26.303Z,98956.38
2022-10-10T20:55:56.668Z,98935.50
2022-10-10T20:58:28.931Z,98959.88
2022-10-10T21:01:23.900Z,98955.19
2022-10-10T21:03:54.410Z,98963.16
2022-10-10T21:06:29.563Z,98965.78
2022-10-10T21:09:03.876Z,98958.41
2022-10-10T21:11:46.499Z,98959.09
2022-10-10T21:14:19.541Z,98925.19
2022-10-10T21:16:50.715Z,98949.28
2022-10-10T21:19:22.154Z,98963.06
2022-10-10T21:21:52.462Z,98959.78
2022-10-10T21:24:38.324Z,98956.47
2022-10-10T21:27:12.030Z,98955.88
2022-10-10T21:29:41.457Z,98934.00
2022-10-10T21:32:17.464Z,98953.81
2022-10-10T21:34:56.618Z,98951.75
2022-10-10T21:37:32.680Z,98954.13
2022-10-10T21:40:10.444Z,98952.66
2022-10-10T21:42:45.604Z,98940.16
2022-10-10T21:45:14.115Z,98955.25
2022-10-10T21:47:51.001Z,98953.19
2022-10-10T21:50:19.197Z,98951.22
2022-10-10T21:52:50.491Z,98950.22
2022-10-10T21:55:20.565Z,98958.41
2022-10-10T21:57:54.143Z,98951.16
2022-10-10T22:00:27.587Z,98956.47
2022-10-10T22:03:05.407Z,98959.03
2022-10-10T22:05:45.066Z,98953.38
2022-10-10T22:08:22.286Z,98952.13
2022-10-10T22:10:54.571Z,98937.47
2022-10-10T22:13:25.799Z,98936.75
2022-10-10T22:15:57.902Z,98941.38
2022-10-10T22:18:30.217Z,98934.38
2022-10-10T22:21:18.265Z,98939.22
2022-10-10T22:23:55.479Z,98935.91
2022-10-10T22:26:27.905Z,98932.78
2022-10-10T22:28:58.835Z,98930.78
2022-10-10T22:34:14.134Z,98939.97
2022-10-10T22:36:43.599Z,98931.97
2022-10-10T22:39:23.165Z,98937.88
2022-10-10T22:41:53.895Z,98938.41
2022-10-10T22:44:23.510Z,98937.50
2022-10-10T22:46:56.760Z,98919.91
2022-10-10T22:49:29.320Z,98916.06
2022-10-10T22:51:59.458Z,98930.59
2022-10-10T22:54:34.885Z,98928.13
2022-10-10T22:57:06.682Z,98924.34
2022-10-10T22:59:42.605Z,98925.44
2022-10-10T23:02:13.911Z,98919.72
2022-10-10T23:04:43.658Z,98905.38
2022-10-10T23:07:15.339Z,98913.22
2022-10-10T23:09:47.281Z,98918.16
2022-10-10T23:12:21.923Z,98917.25
2022-10-10T23:14:55.108Z,98921.81
2022-10-10T23:17:26.380Z,98925.22
2022-10-10T23:19:59.244Z,98932.97
2022-10-10T23:22:32.972Z,98927.09
2022-10-10T23:25:02.332Z,98930.59
2022-10-10T23:27:42.495Z,98929.16
2022-10-10T23:30:17.417Z,98925.75
2022-10-10T23:32:46.420Z,98928.50
2022-10-10T23:35:20.620Z,98925.13
2022-10-10T23:37:48.890Z,98932.75
2022-10-10T23:40:26.701Z,98931.09
2022-10-10T23:43:01.618Z,98930.38
2022-10-10T23:45:46.096Z,98934.34
2022-10-10T23:48:19.954Z,98931.94
2022-10-10T23:50:53.367Z,98934.78
2022-10-10T23:53:24.867Z,98926.38
2022-10-10T23:55:57.233Z,98922.59
2022-10-10T23:58:31.141Z,98904.19
